Time;durP1;ratioP1;P1;durP2;ratioP2;P2;SDS_P1;SDS_P2;PMS_P1;PMS_P2;Temp;Humidity;BMP_temperature;BMP_pressure;BME280_temperature;BME280_humidity;BME280_pressure;Samples;Min_cycle;Max_cycle;Signal;HPM_P1;HPM_P2
2022/04/30 00:00:00;;;;;;;23.17;15.57;;;10.20;66.10;;;;;;5056483;28;20029;-12
2022/04/30 00:02:26;;;;;;;21.42;12.15;;;10.20;67.30;;;;;;5056111;28;20029;-11
2022/04/30 00:04:52;;;;;;;25.77;13.95;;;10.20;67.50;;;;;;5056419;28;20393;-11
2022/04/30 00:07:20;;;;;;;22.02;12.88;;;10.10;67.90;;;;;;5056375;28;20060;-11
2022/04/30 00:09:48;;;;;;;20.33;12.63;;;10.10;66.90;;;;;;5056169;28;20385;-11
2022/04/30 00:12:18;;;;;;;24.15;13.40;;;10.00;66.80;;;;;;5055969;28;20397;-10
2022/04/30 00:14:44;;;;;;;26.70;14.27;;;10.00;66.80;;;;;;5055680;28;20056;-12
2022/04/30 00:17:10;;;;;;;25.27;14.32;;;10.00;66.90;;;;;;5056155;28;20057;-11
2022/04/30 00:19:37;;;;;;;24.02;14.68;;;9.90;67.20;;;;;;5055779;28;20028;-12
2022/04/30 00:22:03;;;;;;;28.98;16.90;;;9.90;67.10;;;;;;5055675;28;20068;-12
2022/04/30 00:24:29;;;;;;;27.08;16.52;;;9.90;66.90;;;;;;5055729;28;20401;-11
2022/04/30 00:26:56;;;;;;;23.63;13.65;;;9.80;67.40;;;;;;5054697;28;20075;-11
2022/04/30 00:29:23;;;;;;;23.10;13.88;;;9.80;67.80;;;;;;5055610;28;20508;-13
2022/04/30 00:31:50;;;;;;;22.40;15.35;;;9.80;67.60;;;;;;5055577;28;20021;-12
2022/04/30 00:34:16;;;;;;;24.90;15.05;;;9.80;68.00;;;;;;5055328;28;20079;-11
2022/04/30 00:36:42;;;;;;;24.77;15.35;;;9.80;69.20;;;;;;5055452;28;20021;-12
2022/04/30 00:39:08;;;;;;;29.92;18.15;;;9.80;68.50;;;;;;5055393;28;20040;-12
2022/04/30 00:41:34;;;;;;;23.33;14.25;;;9.80;68.90;;;;;;5055521;28;20017;-11
2022/04/30 00:44:01;;;;;;;21.38;13.05;;;9.70;70.10;;;;;;5055679;28;20045;-12
2022/04/30 00:46:27;;;;;;;21.35;13.52;;;9.70;68.60;;;;;;5053869;28;20025;-12
2022/04/30 00:48:53;;;;;;;27.77;17.20;;;9.70;68.70;;;;;;5054006;28;20388;-11
2022/04/30 00:51:22;;;;;;;31.33;19.48;;;9.70;69.00;;;;;;5055521;28;20025;-13
2022/04/30 00:53:53;;;;;;;21.15;13.68;;;9.60;69.50;;;;;;5055492;28;20033;-12
2022/04/30 00:56:27;;;;;;;19.77;12.20;;;9.60;69.30;;;;;;5055162;28;20024;-12
2022/04/30 00:58:56;;;;;;;22.00;13.32;;;9.60;68.90;;;;;;5055457;28;20044;-11
2022/04/30 01:01:26;;;;;;;19.42;11.27;;;9.60;69.20;;;;;;5055222;28;20546;-12
2022/04/30 01:03:52;;;;;;;21.20;12.88;;;9.60;68.90;;;;;;5055309;28;20075;-11
2022/04/30 01:06:25;;;;;;;22.75;13.35;;;9.50;69.50;;;;;;5055071;28;20029;-12
2022/04/30 01:08:51;;;;;;;18.60;12.25;;;9.50;69.50;;;;;;5054996;28;20106;-11
2022/04/30 01:11:17;;;;;;;18.50;11.90;;;9.40;69.40;;;;;;5054743;28;20056;-11
2022/04/30 01:13:44;;;;;;;17.70;11.98;;;9.40;70.10;;;;;;5054927;28;20108;-11
2022/04/30 01:16:12;;;;;;;27.67;16.88;;;9.30;70.20;;;;;;5055105;28;20044;-11
2022/04/30 01:18:38;;;;;;;25.70;17.80;;;9.30;69.90;;;;;;5054993;28;20111;-12
2022/04/30 01:21:11;;;;;;;26.75;17.20;;;9.20;70.20;;;;;;5054604;28;20511;-12
2022/04/30 01:23:42;;;;;;;24.37;15.90;;;9.20;70.00;;;;;;5054712;28;20029;-12
2022/04/30 01:26:09;;;;;;;17.77;11.95;;;9.20;70.30;;;;;;5055369;28;20258;-14
2022/04/30 01:28:38;;;;;;;23.63;15.05;;;9.20;70.50;;;;;;5054305;28;20025;-12
2022/04/30 01:37:22;;;;;;;21.77;14.23;;;9.10;70.70;;;;;;5054774;28;20055;-12
2022/04/30 01:39:19;;;;;;;17.65;11.93;;;9.00;71.50;;;;;;5054675;28;20044;-11
2022/04/30 01:41:44;;;;;;;20.60;13.45;;;9.00;72.00;;;;;;5054401;28;20029;-11
2022/04/30 01:44:10;;;;;;;20.35;13.05;;;9.00;72.00;;;;;;5054176;28;20029;-11
2022/04/30 01:46:38;;;;;;;22.23;14.40;;;9.00;72.00;;;;;;5053924;28;20025;-11
2022/04/30 01:49:04;;;;;;;20.27;13.65;;;8.90;72.10;;;;;;5054111;28;20484;-11
2022/04/30 01:51:30;;;;;;;19.85;13.20;;;8.90;72.30;;;;;;5054066;28;20029;-12
2022/04/30 01:53:56;;;;;;;14.32;10.75;;;8.90;73.00;;;;;;5054458;28;20031;-12
2022/04/30 01:56:22;;;;;;;17.98;10.68;;;8.90;71.50;;;;;;5053793;28;20032;-13
2022/04/30 01:58:48;;;;;;;19.25;12.57;;;8.90;71.30;;;;;;5054192;28;20033;-13
2022/04/30 02:01:15;;;;;;;24.60;14.80;;;8.90;71.70;;;;;;5054202;28;20032;-12
2022/04/30 02:03:41;;;;;;;24.08;14.52;;;8.90;72.30;;;;;;5053755;28;20056;-11
2022/04/30 02:06:08;;;;;;;21.95;13.38;;;8.80;71.90;;;;;;5053976;28;20021;-11
2022/04/30 02:08:35;;;;;;;22.60;14.98;;;8.80;72.50;;;;;;5053098;28;20056;-12
2022/04/30 02:11:01;;;;;;;21.50;12.70;;;8.80;72.20;;;;;;5054016;28;20033;-12
2022/04/30 02:13:29;;;;;;;17.35;11.98;;;8.90;73.80;;;;;;5053655;28;20027;-12
2022/04/30 02:15:56;;;;;;;17.77;12.93;;;8.90;73.00;;;;;;5053429;28;20458;-11
2022/04/30 02:18:24;;;;;;;14.68;9.50;;;8.90;72.40;;;;;;5053645;28;20166;-12
2022/04/30 02:20:51;;;;;;;15.38;10.70;;;9.10;72.80;;;;;;5053513;28;20490;-13
2022/04/30 02:23:18;;;;;;;15.85;10.63;;;9.10;71.50;;;;;;5053498;28;20072;-12
2022/04/30 02:25:45;;;;;;;16.05;10.88;;;9.20;71.00;;;;;;5053478;28;20033;-12
2022/04/30 02:28:11;;;;;;;16.50;10.38;;;9.20;71.00;;;;;;5053418;28;20021;-12
2022/04/30 02:30:38;;;;;;;12.63;9.27;;;9.30;70.70;;;;;;5052029;28;20484;-12
2022/04/30 02:33:09;;;;;;;14.43;10.40;;;9.30;70.70;;;;;;5053326;28;20107;-12
2022/04/30 02:35:37;;;;;;;12.93;8.10;;;9.30;70.30;;;;;;5053324;28;20079;-13
2022/04/30 02:38:08;;;;;;;13.80;9.55;;;9.30;70.10;;;;;;5053227;28;20443;-12
2022/04/30 02:40:35;;;;;;;15.63;10.40;;;9.20;69.90;;;;;;5053180;28;20024;-12
2022/04/30 02:43:04;;;;;;;14.55;10.23;;;9.20;70.00;;;;;;5053051;28;20035;-12
2022/04/30 02:45:30;;;;;;;14.57;10.15;;;9.20;69.80;;;;;;5053483;28;20047;-13
2022/04/30 02:47:56;;;;;;;18.02;10.27;;;9.30;69.60;;;;;;5053449;28;20096;-12
2022/04/30 02:50:24;;;;;;;16.92;11.05;;;9.30;69.40;;;;;;5052906;28;20068;-12
2022/04/30 02:52:52;;;;;;;13.77;8.85;;;9.30;69.60;;;;;;5053401;28;20024;-12
2022/04/30 02:55:18;;;;;;;11.95;7.95;;;9.40;69.50;;;;;;5053036;28;20044;-12
2022/04/30 03:00:39;;;;;;;11.40;7.90;;;9.40;69.50;;;;;;5053192;28;20443;-12
2022/04/30 03:03:06;;;;;;;16.92;10.25;;;9.40;69.70;;;;;;5052950;28;20063;-12
2022/04/30 03:05:32;;;;;;;14.57;9.75;;;9.40;69.60;;;;;;5053285;28;20094;-12
2022/04/30 03:08:00;;;;;;;15.20;9.52;;;9.40;69.60;;;;;;5052899;28;20123;-11
2022/04/30 03:10:26;;;;;;;14.68;7.68;;;9.30;68.90;;;;;;5052675;28;20071;-12
2022/04/30 03:12:52;;;;;;;12.55;7.78;;;9.30;68.90;;;;;;5052809;28;20388;-11
2022/04/30 03:15:21;;;;;;;12.98;8.40;;;9.20;68.80;;;;;;5051446;28;20489;-12
2022/04/30 03:23:16;;;;;;;15.18;8.27;;;9.10;69.10;;;;;;5056986;28;19963;-12
2022/04/30 03:25:42;;;;;;;13.27;8.93;;;9.10;69.80;;;;;;5057284;28;20033;-11
2022/04/30 03:28:08;;;;;;;12.98;8.90;;;9.00;69.90;;;;;;5056748;28;20037;-11
2022/04/30 03:30:34;;;;;;;13.30;8.70;;;9.00;70.20;;;;;;5056873;28;20504;-12
2022/04/30 03:33:00;;;;;;;11.70;7.95;;;8.90;70.00;;;;;;5057142;28;20021;-11
2022/04/30 03:35:27;;;;;;;17.63;9.55;;;8.90;69.60;;;;;;5056671;28;20068;-12
2022/04/30 03:37:52;;;;;;;12.77;8.75;;;8.90;69.80;;;;;;5056621;28;20063;-11
2022/04/30 03:40:18;;;;;;;13.32;9.30;;;8.80;69.90;;;;;;5056395;28;20056;-11
2022/04/30 03:42:44;;;;;;;17.05;10.85;;;8.80;70.00;;;;;;5055173;28;20032;-12
2022/04/30 03:45:10;;;;;;;13.85;9.35;;;8.80;70.00;;;;;;5056865;28;20397;-12
2022/04/30 03:47:37;;;;;;;13.40;9.10;;;8.80;70.20;;;;;;5056331;28;20033;-11
2022/04/30 03:50:05;;;;;;;14.77;9.85;;;8.80;70.40;;;;;;5056719;28;20021;-12
2022/04/30 03:52:32;;;;;;;14.52;9.98;;;8.70;71.00;;;;;;5056391;28;20021;-11
2022/04/30 03:54:59;;;;;;;13.13;9.00;;;8.70;72.00;;;;;;5056283;28;20043;-12
2022/04/30 03:57:25;;;;;;;14.52;9.38;;;8.70;70.70;;;;;;5056141;28;20527;-11
2022/04/30 03:59:51;;;;;;;13.10;9.23;;;8.70;70.50;;;;;;5056504;28;20029;-12
2022/04/30 04:02:18;;;;;;;12.07;8.48;;;8.60;70.70;;;;;;5054745;28;20507;-12
2022/04/30 04:04:45;;;;;;;10.40;7.47;;;8.60;70.40;;;;;;5056121;28;20424;-12
2022/04/30 04:07:11;;;;;;;11.25;7.68;;;8.60;70.40;;;;;;5056067;28;20024;-12
2022/04/30 04:09:37;;;;;;;10.23;7.32;;;8.60;70.90;;;;;;5055947;28;20029;-12
2022/04/30 04:12:03;;;;;;;11.60;7.95;;;8.60;70.50;;;;;;5056356;28;20071;-11
2022/04/30 04:19:58;;;;;;;12.90;6.40;;;8.60;70.60;;;;;;5056165;28;20036;-11
2022/04/30 04:22:24;;;;;;;14.23;7.78;;;8.60;70.70;;;;;;5054318;28;20033;-13
2022/04/30 04:27:34;;;;;;;11.00;7.15;;;8.60;71.80;;;;;;5055738;28;20036;-11
2022/04/30 04:30:00;;;;;;;12.07;7.95;;;8.50;71.60;;;;;;5055214;28;20128;-12
2022/04/30 04:32:26;;;;;;;10.23;7.18;;;8.50;71.50;;;;;;5055691;28;20064;-12
2022/04/30 04:34:52;;;;;;;15.90;9.13;;;8.60;71.20;;;;;;5055925;28;20033;-12
2022/04/30 04:37:19;;;;;;;11.45;7.25;;;8.60;71.80;;;;;;5055550;28;20071;-11
2022/04/30 04:39:45;;;;;;;11.60;8.00;;;8.70;71.00;;;;;;5055640;28;20104;-11
2022/04/30 04:42:11;;;;;;;9.85;7.32;;;8.80;72.00;;;;;;5055574;28;20108;-12
2022/04/30 04:44:37;;;;;;;10.18;7.53;;;8.90;72.00;;;;;;5055714;28;20136;-11
2022/04/30 04:47:03;;;;;;;14.45;9.48;;;9.00;71.40;;;;;;5055357;28;20025;-11
2022/04/30 04:49:32;;;;;;;11.75;7.90;;;9.10;72.90;;;;;;5055597;28;20032;-12
2022/04/30 04:51:58;;;;;;;14.30;9.43;;;9.20;73.30;;;;;;5055244;28;20481;-12
2022/04/30 04:54:24;;;;;;;12.93;8.70;;;9.30;74.90;;;;;;5054933;28;20066;-13
2022/04/30 04:56:50;;;;;;;15.35;10.35;;;9.40;74.30;;;;;;5055344;28;20017;-13
2022/04/30 04:59:16;;;;;;;14.23;10.15;;;9.50;75.10;;;;;;5055476;28;20025;-12
2022/04/30 05:01:42;;;;;;;14.25;10.82;;;9.60;74.90;;;;;;5055351;28;20112;-12
2022/04/30 05:04:08;;;;;;;17.02;12.07;;;9.70;74.40;;;;;;5055201;28;20041;-13
2022/04/30 05:06:35;;;;;;;13.30;9.40;;;9.90;75.30;;;;;;5055075;28;20025;-11
2022/04/30 05:09:02;;;;;;;12.15;8.63;;;10.10;74.00;;;;;;5054959;28;20116;-12
2022/04/30 05:11:27;;;;;;;12.75;8.75;;;10.30;74.00;;;;;;5054953;28;20013;-12
2022/04/30 05:13:53;;;;;;;11.95;8.02;;;10.50;72.20;;;;;;5054867;28;20036;-12
2022/04/30 05:16:23;;;;;;;13.10;8.77;;;10.70;71.40;;;;;;5055601;28;20390;-11
2022/04/30 05:18:50;;;;;;;14.73;9.73;;;10.90;70.10;;;;;;5054751;28;20492;-12
2022/04/30 05:21:16;;;;;;;13.60;8.98;;;11.00;68.90;;;;;;5054897;28;20036;-11
2022/04/30 05:23:42;;;;;;;15.80;10.43;;;11.20;68.50;;;;;;5054963;28;20450;-12
2022/04/30 05:26:08;;;;;;;14.45;9.13;;;11.40;68.00;;;;;;5054622;28;20029;-12
2022/04/30 05:28:34;;;;;;;14.38;9.80;;;11.60;67.70;;;;;;5054587;28;20040;-12
2022/04/30 05:31:00;;;;;;;13.57;8.68;;;11.80;67.30;;;;;;5054513;28;20041;-12
2022/04/30 05:33:26;;;;;;;11.98;7.63;;;11.90;66.90;;;;;;5055085;28;20071;-11
2022/04/30 05:35:53;;;;;;;10.02;7.10;;;12.20;66.60;;;;;;5054413;28;20112;-11
2022/04/30 05:38:20;;;;;;;11.30;7.50;;;12.40;66.60;;;;;;5055071;28;20468;-11
2022/04/30 05:40:46;;;;;;;12.15;7.68;;;12.60;66.30;;;;;;5054584;28;20025;-11
2022/04/30 05:43:12;;;;;;;11.90;7.30;;;12.90;66.70;;;;;;5053439;28;20381;-11
2022/04/30 05:45:38;;;;;;;12.50;8.40;;;13.10;66.50;;;;;;5054563;28;20104;-12
2022/04/30 05:48:04;;;;;;;13.40;8.30;;;13.40;65.60;;;;;;5054114;28;20021;-12
2022/04/30 05:50:31;;;;;;;18.13;9.50;;;13.60;65.10;;;;;;5054231;28;20032;-12
2022/04/30 05:52:57;;;;;;;14.20;8.18;;;13.80;64.20;;;;;;5054057;28;20500;-12
2022/04/30 05:55:24;;;;;;;12.35;7.40;;;14.00;63.70;;;;;;5054367;28;20030;-12
2022/04/30 05:57:50;;;;;;;13.23;8.52;;;14.20;63.50;;;;;;5054208;28;20040;-11
2022/04/30 06:00:17;;;;;;;15.00;9.40;;;14.40;61.70;;;;;;5053716;28;20025;-11
2022/04/30 06:02:43;;;;;;;10.30;7.30;;;14.60;62.00;;;;;;5053718;28;20040;-11
2022/04/30 06:05:09;;;;;;;12.20;8.20;;;14.90;62.10;;;;;;5054099;28;20121;-11
2022/04/30 06:07:36;;;;;;;10.40;7.80;;;15.30;61.00;;;;;;5053760;28;20041;-12
2022/04/30 06:10:04;;;;;;;10.75;6.95;;;15.50;60.50;;;;;;5054013;28;20029;-11
2022/04/30 06:12:30;;;;;;;11.45;7.22;;;15.80;60.30;;;;;;5053411;28;20476;-11
2022/04/30 06:14:56;;;;;;;12.77;7.43;;;16.00;59.90;;;;;;5053734;28;20071;-11
2022/04/30 06:17:22;;;;;;;14.02;7.30;;;16.20;59.70;;;;;;5052453;28;20032;-11
2022/04/30 06:19:48;;;;;;;13.75;7.97;;;16.40;59.50;;;;;;5053904;28;20120;-12
2022/04/30 06:22:14;;;;;;;11.40;7.00;;;16.60;59.00;;;;;;5053376;28;20521;-10
2022/04/30 06:24:40;;;;;;;11.82;7.55;;;16.80;58.30;;;;;;5054034;28;20104;-10
2022/04/30 06:27:06;;;;;;;12.85;9.10;;;17.10;57.30;;;;;;5052188;28;20060;-11
2022/04/30 06:29:32;;;;;;;12.32;8.57;;;17.50;56.00;;;;;;5053756;28;20028;-11
2022/04/30 06:31:59;;;;;;;13.13;8.57;;;17.90;54.10;;;;;;5053710;28;20029;-11
2022/04/30 06:34:25;;;;;;;12.20;8.20;;;18.20;53.30;;;;;;5053199;28;20036;-11
2022/04/30 06:36:51;;;;;;;14.63;8.60;;;18.40;52.20;;;;;;5053383;28;20021;-11
2022/04/30 06:39:17;;;;;;;11.75;8.10;;;18.60;51.90;;;;;;5052376;28;20057;-12
2022/04/30 06:41:43;;;;;;;14.82;7.22;;;18.80;51.80;;;;;;5053052;28;20028;-11
2022/04/30 06:44:09;;;;;;;10.27;7.68;;;19.20;52.20;;;;;;5053321;28;20025;-11
2022/04/30 06:46:35;;;;;;;11.07;7.10;;;19.60;50.70;;;;;;5053259;28;20062;-12
2022/04/30 06:49:04;;;;;;;13.65;7.82;;;19.90;50.10;;;;;;5053119;28;20408;-11
2022/04/30 06:51:30;;;;;;;14.43;8.60;;;20.20;48.50;;;;;;5053113;28;20033;-11
2022/04/30 06:59:28;;;;;;;13.57;7.03;;;20.90;46.20;;;;;;5053429;28;20405;-11
2022/04/30 07:02:01;;;;;;;7.70;5.63;;;21.00;45.90;;;;;;5053337;28;20071;-11
2022/04/30 07:04:28;;;;;;;;;;;21.20;45.10;;;;;;5053223;28;20139;-12
2022/04/30 07:06:54;;;;;;;10.43;6.93;;;21.40;43.40;;;;;;5052939;28;20365;-11
2022/04/30 07:09:20;;;;;;;10.98;6.68;;;21.70;43.50;;;;;;5052862;28;20025;-11
2022/04/30 07:11:46;;;;;;;9.98;6.93;;;21.90;43.10;;;;;;5052759;28;20029;-11
2022/04/30 07:14:12;;;;;;;8.95;6.28;;;22.00;42.20;;;;;;5052637;28;20048;-13
2022/04/30 07:16:38;;;;;;;9.85;6.47;;;22.10;42.60;;;;;;5051479;28;20028;-11
2022/04/30 07:19:05;;;;;;;11.38;6.95;;;22.20;41.80;;;;;;5053127;28;20083;-11
2022/04/30 07:21:32;;;;;;;9.60;6.43;;;22.10;41.60;;;;;;5052743;28;20060;-13
2022/04/30 07:23:59;;;;;;;9.93;6.63;;;22.00;41.40;;;;;;5053115;28;20112;-11
2022/04/30 07:26:25;;;;;;;9.10;6.93;;;22.00;41.90;;;;;;5052567;28;20029;-12
2022/04/30 07:28:51;;;;;;;9.10;6.85;;;22.00;41.10;;;;;;5052634;28;20037;-11
2022/04/30 07:31:18;;;;;;;10.05;6.85;;;22.10;42.50;;;;;;5052711;28;20025;-10
2022/04/30 07:33:44;;;;;;;10.20;6.28;;;22.20;41.20;;;;;;5051490;28;20048;-11
2022/04/30 07:36:11;;;;;;;9.43;6.72;;;22.40;42.40;;;;;;5052951;28;20047;-11
2022/04/30 07:38:37;;;;;;;12.95;6.18;;;22.40;40.70;;;;;;5052488;28;20032;-12
2022/04/30 07:41:03;;;;;;;11.52;7.00;;;22.40;42.20;;;;;;5052947;28;20025;-12
2022/04/30 07:43:29;;;;;;;8.82;5.38;;;22.50;41.40;;;;;;5052482;28;20083;-11
2022/04/30 07:45:55;;;;;;;7.82;5.90;;;22.60;41.10;;;;;;5052587;28;20115;-13
2022/04/30 07:48:20;;;;;;;8.40;5.47;;;22.80;39.80;;;;;;5052398;28;20168;-12
2022/04/30 07:50:46;;;;;;;7.88;5.65;;;22.80;40.40;;;;;;5052873;28;20021;-12
2022/04/30 07:53:14;;;;;;;8.25;5.60;;;22.80;39.00;;;;;;5052962;28;20059;-12
2022/04/30 07:55:42;;;;;;;7.57;5.18;;;22.80;39.00;;;;;;5052828;28;20026;-12
2022/04/30 07:58:09;;;;;;;7.82;5.15;;;22.60;38.90;;;;;;5052351;28;20473;-12
2022/04/30 08:00:35;;;;;;;8.77;5.45;;;22.70;37.40;;;;;;5051072;28;20036;-11
2022/04/30 08:03:02;;;;;;;8.23;5.35;;;22.60;37.40;;;;;;5052339;28;20051;-12
2022/04/30 08:05:28;;;;;;;7.93;5.57;;;22.50;38.30;;;;;;5053257;28;20033;-13
2022/04/30 08:07:55;;;;;;;8.77;5.30;;;22.60;38.90;;;;;;5056121;28;20032;-12
2022/04/30 08:10:21;;;;;;;6.85;4.28;;;22.70;39.40;;;;;;5055831;28;20024;-11
2022/04/30 08:12:50;;;;;;;8.30;5.07;;;23.00;37.60;;;;;;5056387;28;20090;-12
2022/04/30 08:15:16;;;;;;;7.70;4.90;;;23.30;37.90;;;;;;5055880;28;20064;-12
2022/04/30 08:17:42;;;;;;;8.70;4.97;;;23.50;38.00;;;;;;5054739;28;20021;-11
2022/04/30 08:20:08;;;;;;;8.40;4.88;;;23.80;38.50;;;;;;5056028;28;20052;-11
2022/04/30 08:22:34;;;;;;;10.95;5.40;;;24.00;35.60;;;;;;5055652;28;20028;-11
2022/04/30 08:25:01;;;;;;;7.78;5.28;;;24.00;36.00;;;;;;5056347;28;20033;-11
2022/04/30 08:27:27;;;;;;;8.05;4.68;;;24.00;34.90;;;;;;5055653;28;20547;-11
2022/04/30 08:29:53;;;;;;;7.93;4.78;;;24.20;36.80;;;;;;5055768;28;20021;-11
2022/04/30 08:32:24;;;;;;;7.47;4.90;;;24.20;36.00;;;;;;5055807;28;20036;-11
2022/04/30 08:34:50;;;;;;;8.23;4.68;;;24.40;36.40;;;;;;5055670;28;20052;-12
2022/04/30 08:37:16;;;;;;;7.85;4.80;;;24.30;36.10;;;;;;5055769;28;20065;-12
2022/04/30 08:39:43;;;;;;;5.32;3.92;;;24.30;36.60;;;;;;5055801;28;20086;-11
2022/04/30 08:42:09;;;;;;;5.95;4.38;;;24.40;37.10;;;;;;5055269;28;20036;-11
2022/04/30 08:44:39;;;;;;;6.57;4.10;;;24.50;36.00;;;;;;5055341;28;20028;-11
2022/04/30 08:47:06;;;;;;;6.03;3.95;;;24.60;35.00;;;;;;5055258;28;20029;-12
2022/04/30 08:49:33;;;;;;;5.53;4.18;;;24.90;34.50;;;;;;5054197;28;20516;-11
2022/04/30 08:52:00;;;;;;;7.18;4.38;;;25.10;34.40;;;;;;5055263;28;20481;-11
2022/04/30 08:54:25;;;;;;;7.05;4.35;;;25.30;35.10;;;;;;5055316;28;20063;-10
2022/04/30 08:56:56;;;;;;;6.70;4.68;;;25.30;34.60;;;;;;5055355;28;20443;-11
2022/04/30 08:59:23;;;;;;;5.80;4.10;;;25.40;33.30;;;;;;5055129;28;20035;-12
2022/04/30 09:01:52;;;;;;;5.22;4.18;;;25.50;33.00;;;;;;5053808;28;20029;-11
2022/04/30 09:04:19;;;;;;;4.82;3.60;;;25.60;33.20;;;;;;5054824;28;20033;-12
2022/04/30 09:06:49;;;;;;;5.47;4.25;;;25.60;33.10;;;;;;5053794;28;20017;-12
2022/04/30 09:09:30;;;;;;;7.50;4.28;;;25.70;33.10;;;;;;5055433;28;20551;-12
2022/04/30 09:12:07;;;;;;;6.65;4.47;;;25.80;32.80;;;;;;5053636;28;20033;-10
2022/04/30 09:14:34;;;;;;;5.82;3.90;;;25.70;32.40;;;;;;5054397;28;20106;-11
2022/04/30 09:17:23;;;;;;;5.70;4.05;;;25.70;33.10;;;;;;5054048;28;20065;-11
2022/04/30 09:19:52;;;;;;;4.22;3.63;;;26.00;30.80;;;;;;5054855;28;20389;-11
2022/04/30 09:22:34;;;;;;;9.75;4.32;;;26.00;31.10;;;;;;5054730;28;20032;-11
2022/04/30 09:25:01;;;;;;;5.70;3.88;;;26.10;31.50;;;;;;5054631;28;20051;-11
2022/04/30 09:27:28;;;;;;;4.60;3.53;;;26.40;30.40;;;;;;5053719;28;20037;-11
2022/04/30 09:29:54;;;;;;;7.50;4.60;;;26.40;30.80;;;;;;5054592;28;20032;-10
2022/04/30 09:32:25;;;;;;;4.97;4.07;;;26.40;31.00;;;;;;5054350;28;20025;-11
2022/04/30 09:37:45;;;;;;;5.38;3.90;;;26.40;31.20;;;;;;5054938;28;20139;-11
2022/04/30 09:40:14;;;;;;;4.88;3.55;;;26.60;31.60;;;;;;5054413;28;20107;-11
2022/04/30 09:42:46;;;;;;;5.45;3.60;;;26.90;31.70;;;;;;5054139;28;20040;-12
2022/04/30 09:45:31;;;;;;;9.50;4.10;;;27.10;31.50;;;;;;5054159;28;20520;-11
2022/04/30 09:48:00;;;;;;;7.50;3.72;;;27.40;29.80;;;;;;5054493;28;20036;-11
2022/04/30 09:56:14;;;;;;;7.07;4.07;;;27.70;29.50;;;;;;5054430;28;20044;-11
2022/04/30 09:58:42;;;;;;;6.40;3.58;;;27.90;27.80;;;;;;5053983;28;20032;-12
2022/04/30 10:01:11;;;;;;;5.90;3.67;;;27.80;28.70;;;;;;5055099;28;20025;-11
2022/04/30 10:03:39;;;;;;;5.43;3.83;;;27.90;28.40;;;;;;5108080;23;20210;-18
2022/04/30 10:06:06;;;;;;;4.60;3.35;;;28.10;28.40;;;;;;5032730;28;20033;-19
2022/04/30 10:08:37;;;;;;;10.43;4.35;;;28.20;28.70;;;;;;5033786;28;20380;-18
2022/04/30 10:11:22;;;;;;;5.38;3.60;;;28.30;27.50;;;;;;5034227;28;20394;-19
2022/04/30 10:14:22;;;;;;;6.88;4.03;;;28.40;28.30;;;;;;5034159;28;20029;-18
2022/04/30 10:19:35;;;;;;;7.40;3.88;;;28.90;27.10;;;;;;5034698;28;20530;-18
2022/04/30 10:22:17;;;;;;;4.25;3.22;;;29.10;26.50;;;;;;5033590;28;20484;-18
2022/04/30 10:24:44;;;;;;;5.65;3.38;;;29.20;25.60;;;;;;5034183;28;20029;-19
2022/04/30 10:27:11;;;;;;;5.53;3.53;;;29.30;26.20;;;;;;5033570;28;20029;-19
2022/04/30 10:29:37;;;;;;;5.43;3.30;;;29.40;26.80;;;;;;5033544;28;20087;-17
2022/04/30 10:32:03;;;;;;;5.85;3.92;;;29.60;27.00;;;;;;5033783;28;20104;-18
2022/04/30 10:34:31;;;;;;;5.85;3.95;;;29.90;26.90;;;;;;5034116;28;20029;-19
2022/04/30 10:37:01;;;;;;;6.70;4.43;;;30.10;25.90;;;;;;5033421;28;20384;-18
2022/04/30 10:39:27;;;;;;;6.03;3.78;;;30.30;25.40;;;;;;5033445;28;20476;-18
2022/04/30 10:41:53;;;;;;;6.97;3.78;;;30.20;26.40;;;;;;5033303;28;20431;-18
2022/04/30 10:44:32;;;;;;;6.63;4.32;;;30.40;26.60;;;;;;5033207;28;20029;-18
2022/04/30 10:47:14;;;;;;;6.00;3.80;;;30.70;25.80;;;;;;5033354;28;20075;-18
2022/04/30 10:49:40;;;;;;;6.22;4.10;;;30.80;24.80;;;;;;5033665;28;20028;-17
2022/04/30 10:52:06;;;;;;;6.35;3.67;;;30.60;25.20;;;;;;5033258;28;20034;-17
2022/04/30 10:54:34;;;;;;;5.55;4.05;;;30.30;25.20;;;;;;5033034;28;20505;-19
2022/04/30 10:57:05;;;;;;;7.90;4.47;;;30.20;25.90;;;;;;5033215;28;20034;-19
2022/04/30 10:59:31;;;;;;;4.25;3.25;;;30.10;25.30;;;;;;5033218;28;20104;-19
2022/04/30 11:01:57;;;;;;;3.95;3.38;;;29.70;25.80;;;;;;5032965;28;20036;-18
2022/04/30 11:04:24;;;;;;;5.50;3.33;;;29.60;26.10;;;;;;5032692;28;20464;-18
2022/04/30 11:06:53;;;;;;;4.78;3.50;;;29.70;26.50;;;;;;5033583;28;20033;-18
2022/04/30 11:09:21;;;;;;;4.90;3.70;;;29.80;26.80;;;;;;5033327;28;20033;-18
2022/04/30 11:11:49;;;;;;;5.70;4.18;;;30.20;26.70;;;;;;5033027;28;20136;-18
2022/04/30 11:14:16;;;;;;;7.68;4.00;;;30.80;24.90;;;;;;5031602;28;20397;-18
2022/04/30 11:16:49;;;;;;;7.85;4.15;;;31.00;24.50;;;;;;5033907;28;20412;-17
2022/04/30 11:19:23;;;;;;;7.47;4.10;;;31.40;24.20;;;;;;5033040;28;20113;-18
2022/04/30 11:21:52;;;;;;;6.22;4.05;;;31.70;24.00;;;;;;5032860;28;20029;-20
2022/04/30 11:24:30;;;;;;;4.60;3.75;;;31.90;23.70;;;;;;5031437;28;20026;-19
2022/04/30 11:27:08;;;;;;;3.85;3.38;;;32.00;24.00;;;;;;5033245;28;20045;-18
2022/04/30 11:29:47;;;;;;;5.88;3.50;;;32.30;24.60;;;;;;5032956;28;20025;-18
2022/04/30 11:32:21;;;;;;;6.88;4.80;;;32.80;24.10;;;;;;5032922;28;20030;-24
2022/04/30 11:34:52;;;;;;;6.80;4.47;;;33.20;22.60;;;;;;5032828;28;20489;-18
2022/04/30 11:37:18;;;;;;;5.68;4.22;;;33.20;22.90;;;;;;5032812;28;20032;-17
2022/04/30 11:39:44;;;;;;;5.57;4.43;;;33.00;23.20;;;;;;5033130;28;20112;-18
2022/04/30 11:42:10;;;;;;;6.05;4.30;;;32.70;23.50;;;;;;5036646;28;20376;-19
2022/04/30 11:44:36;;;;;;;5.65;4.25;;;32.30;23.60;;;;;;5037452;28;20025;-18
2022/04/30 11:47:07;;;;;;;7.75;4.35;;;32.00;23.70;;;;;;5037118;28;20032;-19
2022/04/30 11:49:34;;;;;;;7.20;4.57;;;31.60;24.10;;;;;;5035309;28;20122;-19
2022/04/30 11:52:01;;;;;;;6.82;4.80;;;31.40;24.70;;;;;;5036792;28;20381;-17
2022/04/30 11:54:29;;;;;;;6.10;4.25;;;31.70;24.00;;;;;;5035095;28;20057;-18
2022/04/30 11:56:58;;;;;;;7.28;4.85;;;31.90;24.20;;;;;;5036453;28;20057;-18
2022/04/30 11:59:32;;;;;;;7.15;4.60;;;32.30;24.00;;;;;;5036639;28;20112;-18
2022/04/30 12:02:09;;;;;;;7.25;4.47;;;32.60;23.30;;;;;;5036557;28;20038;-18
2022/04/30 12:04:41;;;;;;;6.25;4.82;;;32.90;23.20;;;;;;5036310;28;20052;-17
2022/04/30 12:07:09;;;;;;;6.55;5.05;;;33.00;22.80;;;;;;5036267;28;20036;-17
2022/04/30 12:09:39;;;;;;;6.20;4.60;;;33.20;23.00;;;;;;5036530;28;20025;-18
2022/04/30 12:12:16;;;;;;;6.18;4.97;;;33.30;23.30;;;;;;5036219;28;20057;-20
2022/04/30 12:14:47;;;;;;;8.07;4.65;;;33.60;22.90;;;;;;5036413;28;20034;-18
2022/04/30 12:17:16;;;;;;;8.73;5.47;;;33.70;22.80;;;;;;5036697;28;20107;-19
2022/04/30 12:25:18;;;;;;;8.02;4.90;;;32.80;23.70;;;;;;5036288;28;20036;-18
2022/04/30 12:28:02;;;;;;;5.75;4.57;;;32.30;23.90;;;;;;5036174;28;20029;-18
2022/04/30 12:30:31;;;;;;;5.43;4.47;;;32.00;24.00;;;;;;5035706;28;20025;-18
2022/04/30 12:33:04;;;;;;;8.20;4.97;;;31.90;24.30;;;;;;5035996;28;20029;-18
2022/04/30 12:35:38;;;;;;;5.90;4.07;;;31.90;24.40;;;;;;5035722;28;20566;-17
2022/04/30 12:38:16;;;;;;;5.88;4.03;;;31.70;24.70;;;;;;5035969;28;20480;-19
2022/04/30 12:40:45;;;;;;;5.82;3.80;;;32.00;24.50;;;;;;5035692;28;20032;-19
2022/04/30 12:43:11;;;;;;;7.05;4.32;;;32.60;24.20;;;;;;5035475;28;20025;-18
2022/04/30 12:45:38;;;;;;;8.23;4.20;;;33.10;23.90;;;;;;5035437;28;20065;-19
2022/04/30 12:48:05;;;;;;;5.53;3.83;;;33.50;23.20;;;;;;5035415;28;20025;-18
2022/04/30 12:50:32;;;;;;;6.20;4.20;;;33.80;23.10;;;;;;5035654;28;20054;-18
2022/04/30 12:52:59;;;;;;;6.03;4.30;;;33.90;23.60;;;;;;5035369;28;20040;-18
2022/04/30 12:55:25;;;;;;;6.65;4.45;;;34.00;23.70;;;;;;5035274;28;20029;-18
2022/04/30 12:57:59;;;;;;;6.55;4.70;;;34.00;23.60;;;;;;5035362;28;20100;-18
2022/04/30 13:00:25;;;;;;;4.90;3.95;;;33.90;23.60;;;;;;5035275;28;20034;-19
2022/04/30 13:02:52;;;;;;;4.40;3.75;;;33.60;23.80;;;;;;5035230;28;20090;-20
2022/04/30 13:05:18;;;;;;;3.90;3.47;;;33.30;23.80;;;;;;5035461;28;20034;-17
2022/04/30 13:07:44;;;;;;;6.85;4.18;;;33.10;24.10;;;;;;5033910;28;20507;-19
2022/04/30 13:15:42;;;;;;;4.30;3.90;;;32.80;24.40;;;;;;5035333;28;20036;-19
2022/04/30 13:18:08;;;;;;;6.80;3.50;;;32.40;24.60;;;;;;5034946;28;20025;-18
2022/04/30 13:20:36;;;;;;;5.05;3.40;;;32.20;24.70;;;;;;5034653;28;20671;-18
2022/04/30 13:23:03;;;;;;;4.82;3.90;;;32.10;25.10;;;;;;5034738;28;20044;-18
2022/04/30 13:25:30;;;;;;;5.22;4.10;;;32.30;24.90;;;;;;5034762;28;20029;-19
2022/04/30 13:27:57;;;;;;;5.00;3.63;;;32.40;23.80;;;;;;5035083;28;20053;-18
2022/04/30 13:30:25;;;;;;;5.72;4.05;;;32.40;23.50;;;;;;5034457;28;20029;-19
2022/04/30 13:32:51;;;;;;;5.75;3.88;;;32.30;23.80;;;;;;5033337;28;20021;-18
2022/04/30 13:35:19;;;;;;;10.23;4.72;;;32.30;24.50;;;;;;5034522;28;20065;-18